createdAt,value
2022-09-20T00:01:07.904Z,10.06
2022-09-20T00:03:36.536Z,10.13
2022-09-20T00:06:06.348Z,10.01
2022-09-20T00:08:35.688Z,9.98
2022-09-20T00:11:04.082Z,9.91
2022-09-20T00:13:32.212Z,9.90
2022-09-20T00:16:00.876Z,9.96
2022-09-20T00:18:28.712Z,9.87
2022-09-20T00:20:56.537Z,9.86
2022-09-20T00:23:24.395Z,9.77
2022-09-20T00:25:58.308Z,9.84
2022-09-20T00:28:27.234Z,9.66
2022-09-20T00:30:56.301Z,9.76
2022-09-20T00:33:26.339Z,9.77
2022-09-20T00:35:53.130Z,9.68
2022-09-20T00:38:20.978Z,9.76
2022-09-20T00:40:48.758Z,9.69
2022-09-20T00:43:19.149Z,9.64
2022-09-20T00:45:50.472Z,9.62
2022-09-20T00:48:26.535Z,9.69
2022-09-20T00:50:59.256Z,9.76
2022-09-20T00:53:30.232Z,9.68
2022-09-20T00:56:02.060Z,9.72
2022-09-20T00:58:34.121Z,9.68
2022-09-20T01:01:02.087Z,9.77
2022-09-20T01:03:33.658Z,9.81
2022-09-20T01:06:05.050Z,9.77
2022-09-20T01:08:35.294Z,9.79
2022-09-20T01:11:03.737Z,9.79
2022-09-20T01:13:32.892Z,9.90
2022-09-20T01:16:03.637Z,9.77
2022-09-20T01:18:34.621Z,9.72
2022-09-20T01:21:03.593Z,9.78
2022-09-20T01:23:45.023Z,9.75
2022-09-20T01:26:39.289Z,9.69
2022-09-20T01:29:20.409Z,9.70
2022-09-20T01:31:54.594Z,9.69
2022-09-20T01:34:29.560Z,9.66
2022-09-20T01:37:06.152Z,9.71
2022-09-20T01:39:43.969Z,9.78
2022-09-20T01:42:14.108Z,9.76
2022-09-20T01:44:53.272Z,9.86
2022-09-20T01:47:31.722Z,9.75
2022-09-20T01:50:08.561Z,9.75
2022-09-20T01:53:16.013Z,9.67
2022-09-20T01:56:02.402Z,9.66
2022-09-20T01:59:25.026Z,9.63
2022-09-20T02:02:12.570Z,9.49
2022-09-20T02:05:13.134Z,9.42
2022-09-20T02:08:17.592Z,9.35
2022-09-20T02:11:07.082Z,9.24
2022-09-20T02:13:51.672Z,9.23
2022-09-20T02:16:37.349Z,9.09
2022-09-20T02:19:28.634Z,9.07
2022-09-20T02:22:11.231Z,9.13
2022-09-20T02:24:46.764Z,9.07
2022-09-20T02:27:24.178Z,9.00
2022-09-20T02:30:05.607Z,9.00
2022-09-20T02:32:47.702Z,8.92
2022-09-20T02:35:27.192Z,8.92
2022-09-20T02:38:26.806Z,8.87
2022-09-20T02:41:15.304Z,8.78
2022-09-20T02:43:52.976Z,8.72
2022-09-20T02:46:28.632Z,8.68
2022-09-20T02:49:03.646Z,8.62
2022-09-20T02:51:40.942Z,8.71
2022-09-20T02:54:23.395Z,8.56
2022-09-20T02:57:00.935Z,8.73
2022-09-20T02:59:36.530Z,8.64
2022-09-20T03:02:12.023Z,8.64
2022-09-20T03:04:56.577Z,8.64
2022-09-20T03:07:33.417Z,8.59
2022-09-20T03:10:12.302Z,8.61
2022-09-20T03:12:53.549Z,8.62
2022-09-20T03:15:30.621Z,8.57
2022-09-20T03:18:08.640Z,8.58
2022-09-20T03:20:48.048Z,8.49
2022-09-20T03:23:33.046Z,8.49
2022-09-20T03:26:08.324Z,8.44
2022-09-20T03:28:49.131Z,8.42
2022-09-20T03:31:31.022Z,8.43
2022-09-20T03:34:13.250Z,8.33
2022-09-20T03:36:53.484Z,8.25
2022-09-20T03:39:47.407Z,8.17
2022-09-20T03:42:17.645Z,8.14
2022-09-20T03:45:08.482Z,8.13
2022-09-20T03:47:55.543Z,8.11
2022-09-20T03:50:48.114Z,8.03
2022-09-20T03:53:34.951Z,7.96
2022-09-20T03:56:35.736Z,7.91
2022-09-20T03:59:19.222Z,7.93
2022-09-20T04:02:09.409Z,7.96
2022-09-20T04:04:45.554Z,7.91
2022-09-20T04:07:21.294Z,7.84
2022-09-20T04:10:13.776Z,7.78
2022-09-20T04:13:00.424Z,7.80
2022-09-20T04:15:37.903Z,7.72
2022-09-20T04:18:19.421Z,7.71
2022-09-20T04:20:52.018Z,7.68
2022-09-20T04:23:33.217Z,7.61
2022-09-20T04:26:04.127Z,7.57
2022-09-20T04:28:40.717Z,7.61
2022-09-20T04:31:22.339Z,7.54
2022-09-20T04:33:52.190Z,7.70
2022-09-20T04:36:36.702Z,7.73
2022-09-20T04:39:18.202Z,7.67
2022-09-20T04:42:35.008Z,7.62
2022-09-20T04:45:31.044Z,7.67
2022-09-20T04:48:44.957Z,7.74
2022-09-20T04:51:35.827Z,7.78
2022-09-20T04:54:36.479Z,7.87
2022-09-20T04:57:42.315Z,7.90
2022-09-20T05:00:14.240Z,8.04
2022-09-20T05:03:13.422Z,8.09
2022-09-20T05:06:07.557Z,8.22
2022-09-20T05:09:15.014Z,8.23
2022-09-20T05:12:18.928Z,8.25
2022-09-20T05:15:08.182Z,8.33
2022-09-20T05:18:09.946Z,8.34
2022-09-20T05:21:20.539Z,8.39
2022-09-20T05:24:01.192Z,8.41
2022-09-20T05:26:41.661Z,8.41
2022-09-20T05:29:16.085Z,8.54
2022-09-20T05:31:52.617Z,8.59
2022-09-20T05:34:32.191Z,8.37
2022-09-20T05:37:05.621Z,8.46
2022-09-20T05:39:42.917Z,8.54
2022-09-20T05:42:19.598Z,8.56
2022-09-20T05:44:58.130Z,8.65
2022-09-20T05:47:35.979Z,8.67
2022-09-20T05:50:29.353Z,8.89
2022-09-20T05:53:05.443Z,8.95
2022-09-20T05:55:52.873Z,8.96
2022-09-20T05:58:47.565Z,9.07
2022-09-20T06:01:21.891Z,9.02
2022-09-20T06:03:55.806Z,8.98
2022-09-20T06:06:32.907Z,9.09
2022-09-20T06:09:19.731Z,9.08
2022-09-20T06:12:17.973Z,9.09
2022-09-20T06:14:52.111Z,9.01
2022-09-20T06:17:28.571Z,8.99
2022-09-20T06:20:17.188Z,8.86
2022-09-20T06:22:49.068Z,8.92
2022-09-20T06:25:22.827Z,8.92
2022-09-20T06:27:54.658Z,8.88
2022-09-20T06:30:25.700Z,8.83
2022-09-20T06:32:58.026Z,8.65
2022-09-20T06:35:30.259Z,8.78
2022-09-20T06:38:30.297Z,8.92
2022-09-20T06:41:15.951Z,8.94
2022-09-20T06:43:43.701Z,8.93
2022-09-20T06:46:11.949Z,8.94
2022-09-20T06:48:40.279Z,8.98
2022-09-20T06:51:09.667Z,9.07
2022-09-20T06:53:41.934Z,9.16
2022-09-20T06:56:14.507Z,9.30
2022-09-20T06:58:42.262Z,9.36
2022-09-20T07:01:10.173Z,9.32
2022-09-20T07:03:38.491Z,9.29
2022-09-20T07:06:06.635Z,9.38
2022-09-20T07:08:34.457Z,9.44
2022-09-20T07:11:06.638Z,9.39
2022-09-20T07:13:34.408Z,9.54
2022-09-20T07:16:03.527Z,9.36
2022-09-20T07:18:33.362Z,9.52
2022-09-20T07:21:01.339Z,9.61
2022-09-20T07:23:31.349Z,9.52
2022-09-20T07:26:00.724Z,9.72
2022-09-20T07:28:30.568Z,9.84
2022-09-20T07:30:58.499Z,9.88
2022-09-20T07:33:26.273Z,10.11
2022-09-20T07:35:55.793Z,10.38
2022-09-20T07:38:24.249Z,10.31
2022-09-20T07:40:57.177Z,10.39
2022-09-20T07:43:25.541Z,10.66
2022-09-20T07:45:56.330Z,10.81
2022-09-20T07:48:25.908Z,10.82
2022-09-20T07:50:55.100Z,10.88
2022-09-20T07:53:23.484Z,11.12
2022-09-20T07:55:58.840Z,11.24
2022-09-20T07:58:27.149Z,11.35
2022-09-20T08:00:57.591Z,11.38
2022-09-20T08:03:26.008Z,11.33
2022-09-20T08:05:59.917Z,11.61
2022-09-20T08:08:29.034Z,11.51
2022-09-20T08:11:06.765Z,11.79
2022-09-20T08:16:27.981Z,11.75
2022-09-20T08:18:58.854Z,11.51
2022-09-20T08:21:28.544Z,11.76
2022-09-20T08:23:56.600Z,11.78
2022-09-20T08:26:26.339Z,11.69
2022-09-20T08:28:56.422Z,11.66
2022-09-20T08:31:27.215Z,11.78
2022-09-20T08:33:55.537Z,11.69
2022-09-20T08:36:24.661Z,11.97
2022-09-20T08:41:47.759Z,12.32
2022-09-20T08:44:19.789Z,12.58
2022-09-20T08:46:51.074Z,12.30
2022-09-20T08:49:27.254Z,12.23
2022-09-20T08:51:58.169Z,12.24
2022-09-20T08:54:32.279Z,12.36
2022-09-20T08:57:05.535Z,12.27
2022-09-20T08:59:34.658Z,12.28
2022-09-20T09:02:03.928Z,12.31
2022-09-20T09:04:36.704Z,12.13
2022-09-20T09:07:05.998Z,12.22
2022-09-20T09:09:37.956Z,12.27
2022-09-20T09:12:06.957Z,12.16
2022-09-20T09:14:55.056Z,12.22
2022-09-20T09:17:27.881Z,11.99
2022-09-20T09:19:57.479Z,11.85
2022-09-20T09:22:32.211Z,11.95
2022-09-20T09:25:32.238Z,12.06
2022-09-20T09:28:02.614Z,11.95
2022-09-20T09:30:33.300Z,12.16
2022-09-20T09:33:29.700Z,12.25
2022-09-20T09:36:00.214Z,12.57
2022-09-20T09:38:30.141Z,13.09
2022-09-20T09:40:59.743Z,13.47
2022-09-20T09:43:30.176Z,13.53
2022-09-20T09:46:18.726Z,13.77
2022-09-20T09:48:50.230Z,14.02
2022-09-20T09:51:20.725Z,14.44
2022-09-20T09:53:50.185Z,13.69
2022-09-20T09:56:47.255Z,13.59
2022-09-20T09:59:28.388Z,13.66
2022-09-20T10:02:05.342Z,13.64
2022-09-20T10:04:41.515Z,13.72
2022-09-20T10:07:16.084Z,14.28
2022-09-20T10:10:01.410Z,14.70
2022-09-20T10:12:45.850Z,15.14
2022-09-20T10:15:29.732Z,15.33
2022-09-20T10:18:09.787Z,15.51
2022-09-20T10:20:53.175Z,15.20
2022-09-20T10:26:48.154Z,15.35
2022-09-20T10:29:26.234Z,15.95
2022-09-20T10:32:03.816Z,15.03
2022-09-20T10:35:10.776Z,14.96
2022-09-20T10:37:52.932Z,15.35
2022-09-20T10:40:50.509Z,15.40
2022-09-20T10:43:31.058Z,14.68
2022-09-20T10:46:31.195Z,15.16
2022-09-20T10:49:05.698Z,14.88
2022-09-20T10:51:47.209Z,14.75
2022-09-20T10:54:35.032Z,14.62
2022-09-20T10:57:18.562Z,14.50
2022-09-20T10:59:55.642Z,14.64
2022-09-20T11:02:42.794Z,14.47
2022-09-20T11:05:31.394Z,15.19
2022-09-20T11:08:11.976Z,15.71
2022-09-20T11:10:45.831Z,16.11
2022-09-20T11:13:27.795Z,15.90
2022-09-20T11:16:01.652Z,15.07
2022-09-20T11:18:35.746Z,14.97
2022-09-20T11:21:09.793Z,15.05
2022-09-20T11:23:46.600Z,15.14
2022-09-20T11:26:23.690Z,15.02
2022-09-20T11:28:55.267Z,15.36
2022-09-20T11:31:27.508Z,15.26
2022-09-20T11:34:00.346Z,16.95
2022-09-20T11:36:33.396Z,16.53
2022-09-20T11:39:08.531Z,17.59
2022-09-20T11:41:38.218Z,16.96
2022-09-20T11:44:12.134Z,16.92
2022-09-20T11:46:45.331Z,15.83
2022-09-20T11:49:17.754Z,15.46
2022-09-20T11:52:10.868Z,15.16
2022-09-20T11:55:06.367Z,14.77
2022-09-20T11:57:35.818Z,16.47
2022-09-20T12:00:08.020Z,17.75
2022-09-20T12:02:39.276Z,18.42
2022-09-20T12:05:08.942Z,18.61
2022-09-20T12:07:40.457Z,19.78
2022-09-20T12:10:22.802Z,19.34
2022-09-20T12:12:58.529Z,20.00
2022-09-20T12:15:30.536Z,18.64
2022-09-20T12:18:13.482Z,18.30
2022-09-20T12:21:06.653Z,18.09
2022-09-20T12:24:02.616Z,19.23
2022-09-20T12:26:39.849Z,19.14
2022-09-20T12:29:54.232Z,20.21
2022-09-20T12:32:55.059Z,21.76
2022-09-20T12:35:56.994Z,20.44
2022-09-20T12:38:56.447Z,20.02
2022-09-20T12:41:28.701Z,19.69
2022-09-20T12:44:06.779Z,17.07
2022-09-20T12:46:41.995Z,16.19
2022-09-20T12:50:01.912Z,15.92
2022-09-20T12:52:56.359Z,15.47
2022-09-20T12:55:34.526Z,15.14
2022-09-20T12:58:05.953Z,14.61
2022-09-20T13:00:39.003Z,14.61
2022-09-20T13:03:28.427Z,14.28
2022-09-20T13:06:26.061Z,14.09
2022-09-20T13:08:59.174Z,14.28
2022-09-20T13:11:31.429Z,13.99
2022-09-20T13:14:02.059Z,14.15
2022-09-20T13:16:33.226Z,13.85
2022-09-20T13:19:05.666Z,13.50
2022-09-20T13:21:35.217Z,13.61
2022-09-20T13:24:03.531Z,13.59
2022-09-20T13:26:37.131Z,13.48
2022-09-20T13:29:10.116Z,13.68
2022-09-20T13:31:38.119Z,13.79
2022-09-20T13:34:21.722Z,13.31
2022-09-20T13:36:56.014Z,13.62
2022-09-20T13:39:28.324Z,13.88
2022-09-20T13:42:02.302Z,13.52
2022-09-20T13:44:34.399Z,13.19
2022-09-20T13:47:02.601Z,13.47
2022-09-20T13:49:33.748Z,13.60
2022-09-20T13:52:21.518Z,13.30
2022-09-20T13:54:49.334Z,12.89
2022-09-20T13:57:22.830Z,13.11
2022-09-20T13:59:52.919Z,12.94
2022-09-20T14:02:25.824Z,12.86
2022-09-20T14:04:56.952Z,12.92
2022-09-20T14:07:28.192Z,12.90
2022-09-20T14:09:58.209Z,12.94
2022-09-20T14:12:28.170Z,13.26
2022-09-20T14:14:56.838Z,13.40
2022-09-20T14:17:25.873Z,13.61
2022-09-20T14:19:57.536Z,13.48
2022-09-20T14:22:28.348Z,13.57
2022-09-20T14:25:02.718Z,13.92
2022-09-20T14:27:31.462Z,13.48
2022-09-20T14:29:59.812Z,12.84
2022-09-20T14:32:40.430Z,13.37
2022-09-20T14:35:17.224Z,13.11
2022-09-20T14:37:47.817Z,12.49
2022-09-20T14:40:22.810Z,12.15
2022-09-20T14:42:54.552Z,12.18
2022-09-20T14:45:25.689Z,12.10
2022-09-20T14:48:10.323Z,12.24
2022-09-20T14:50:42.231Z,12.32
2022-09-20T14:53:26.690Z,12.17
2022-09-20T14:56:13.229Z,12.15
2022-09-20T14:59:06.926Z,11.83
2022-09-20T15:01:37.074Z,12.17
2022-09-20T15:04:10.297Z,12.21
2022-09-20T15:06:40.209Z,12.10
2022-09-20T15:09:11.229Z,12.17
2022-09-20T15:11:39.519Z,12.23
2022-09-20T15:14:08.417Z,12.37
2022-09-20T15:16:36.426Z,12.43
2022-09-20T15:19:05.786Z,12.51
2022-09-20T15:21:33.653Z,12.63
2022-09-20T15:24:03.137Z,12.66
2022-09-20T15:26:32.903Z,12.58
2022-09-20T15:29:00.891Z,12.55
2022-09-20T15:31:29.116Z,12.58
2022-09-20T15:33:56.932Z,12.56
2022-09-20T15:36:24.731Z,12.26
2022-09-20T15:38:54.892Z,12.43
2022-09-20T15:41:27.964Z,12.24
2022-09-20T15:43:58.377Z,12.38
2022-09-20T15:46:27.575Z,12.38
2022-09-20T15:48:56.319Z,12.54
2022-09-20T15:51:24.170Z,12.58
2022-09-20T15:53:57.961Z,12.57
2022-09-20T15:56:28.938Z,12.29
2022-09-20T15:59:00.329Z,12.47
2022-09-20T16:01:29.854Z,12.62
2022-09-20T16:03:57.783Z,12.71
2022-09-20T16:06:26.322Z,12.62
2022-09-20T16:08:54.330Z,12.86
2022-09-20T16:11:23.240Z,12.99
2022-09-20T16:13:56.067Z,12.96
2022-09-20T16:16:24.015Z,12.84
2022-09-20T16:19:09.315Z,13.81
2022-09-20T16:21:39.251Z,15.48
2022-09-20T16:24:08.981Z,15.61
2022-09-20T16:26:38.243Z,15.76
2022-09-20T16:29:08.291Z,16.28
2022-09-20T16:31:40.232Z,18.16
2022-09-20T16:34:13.569Z,17.79
2022-09-20T16:36:43.357Z,16.79
2022-09-20T16:39:12.823Z,16.43
2022-09-20T16:41:40.951Z,15.44
2022-09-20T16:44:10.672Z,14.84
2022-09-20T16:46:38.652Z,14.22
2022-09-20T16:49:09.444Z,14.19
2022-09-20T16:51:39.184Z,13.46
2022-09-20T16:54:11.708Z,12.97
2022-09-20T16:56:41.334Z,12.92
2022-09-20T16:59:10.830Z,12.66
2022-09-20T17:01:39.829Z,12.38
2022-09-20T17:04:08.575Z,12.35
2022-09-20T17:06:39.071Z,12.17
2022-09-20T17:09:08.062Z,12.07
2022-09-20T17:11:39.298Z,11.86
2022-09-20T17:14:07.994Z,11.74
2022-09-20T17:16:39.208Z,11.63
2022-09-20T17:19:08.973Z,11.48
2022-09-20T17:21:39.231Z,11.38
2022-09-20T17:24:08.415Z,11.46
2022-09-20T17:26:38.550Z,11.46
2022-09-20T17:29:10.156Z,11.29
2022-09-20T17:31:41.779Z,11.24
2022-09-20T17:34:11.627Z,11.17
2022-09-20T17:36:41.917Z,11.12
2022-09-20T17:39:12.278Z,11.10
2022-09-20T17:41:41.087Z,11.05
2022-09-20T17:44:10.125Z,11.18
2022-09-20T17:46:40.771Z,11.14
2022-09-20T17:49:10.642Z,11.12
2022-09-20T17:51:41.526Z,11.23
2022-09-20T17:54:13.858Z,11.20
2022-09-20T17:56:43.573Z,10.98
2022-09-20T17:59:12.771Z,10.94
2022-09-20T18:01:41.978Z,10.83
2022-09-20T18:04:10.668Z,10.71
2022-09-20T18:06:42.184Z,10.75
2022-09-20T18:09:12.518Z,10.80
2022-09-20T18:11:41.747Z,10.80
2022-09-20T18:14:11.350Z,10.85
2022-09-20T18:16:39.682Z,10.86
2022-09-20T18:19:10.237Z,10.92
2022-09-20T18:21:40.898Z,10.79
2022-09-20T18:24:10.669Z,10.74
2022-09-20T18:26:39.309Z,10.87
2022-09-20T18:29:09.550Z,10.82
2022-09-20T18:31:38.765Z,10.79
2022-09-20T18:34:11.138Z,10.73
2022-09-20T18:36:40.574Z,10.65
2022-09-20T18:39:09.030Z,10.71
2022-09-20T18:41:41.099Z,10.64
2022-09-20T18:44:09.819Z,10.68
2022-09-20T18:46:39.157Z,10.59
2022-09-20T18:49:09.674Z,10.62
2022-09-20T18:51:39.935Z,10.53
2022-09-20T18:54:10.193Z,10.46
2022-09-20T18:56:39.942Z,10.51
2022-09-20T18:59:09.802Z,10.53
2022-09-20T19:02:14.400Z,10.41
2022-09-20T19:05:16.838Z,10.46
2022-09-20T19:08:05.311Z,10.47
2022-09-20T19:10:42.950Z,10.37
2022-09-20T19:13:26.983Z,10.54
2022-09-20T19:16:07.340Z,10.46
2022-09-20T19:18:58.894Z,10.34
2022-09-20T19:21:36.613Z,10.28
2022-09-20T19:24:17.059Z,10.12
2022-09-20T19:26:45.931Z,10.09
2022-09-20T19:29:19.763Z,9.99
2022-09-20T19:31:49.502Z,10.00
2022-09-20T19:34:21.536Z,10.07
2022-09-20T19:37:18.844Z,9.97
2022-09-20T19:40:04.569Z,10.09
2022-09-20T19:42:43.290Z,10.19
2022-09-20T19:45:21.963Z,10.19
2022-09-20T19:48:01.980Z,10.32
2022-09-20T19:50:36.117Z,10.23
2022-09-20T19:53:06.139Z,10.08
2022-09-20T19:55:35.033Z,10.05
2022-09-20T19:58:03.904Z,9.89
2022-09-20T20:00:32.451Z,9.97
2022-09-20T20:03:01.234Z,9.93
2022-09-20T20:05:29.720Z,9.84
2022-09-20T20:08:14.024Z,9.86
2022-09-20T20:10:54.608Z,9.75
2022-09-20T20:13:50.726Z,9.59
2022-09-20T20:16:25.192Z,9.58
2022-09-20T20:19:06.938Z,9.42
2022-09-20T20:21:46.339Z,9.47
2022-09-20T20:24:27.903Z,9.44
2022-09-20T20:26:55.753Z,9.45
2022-09-20T20:29:23.658Z,9.40
2022-09-20T20:31:51.488Z,9.36
2022-09-20T20:34:20.579Z,9.34
2022-09-20T20:36:48.426Z,9.44
2022-09-20T20:39:16.648Z,9.39
2022-09-20T20:41:52.484Z,9.44
2022-09-20T20:44:20.831Z,9.12
2022-09-20T20:46:48.674Z,9.06
2022-09-20T20:49:17.585Z,9.12
2022-09-20T20:51:45.363Z,9.00
2022-09-20T20:54:13.174Z,9.02
2022-09-20T20:56:41.080Z,8.85
2022-09-20T20:59:10.199Z,8.84
2022-09-20T21:01:39.618Z,8.73
2022-09-20T21:04:07.906Z,8.74
2022-09-20T21:06:37.333Z,8.75
2022-09-20T21:09:06.393Z,8.67
2022-09-20T21:11:36.222Z,8.63
2022-09-20T21:14:06.632Z,8.58
2022-09-20T21:16:38.580Z,8.54
2022-09-20T21:19:09.678Z,8.51
2022-09-20T21:21:39.676Z,8.48
2022-09-20T21:24:09.738Z,8.36
2022-09-20T21:26:39.804Z,8.40
2022-09-20T21:29:09.097Z,8.28
2022-09-20T21:31:41.570Z,8.30
2022-09-20T21:34:12.413Z,8.21
2022-09-20T21:36:41.585Z,8.09
2022-09-20T21:39:09.655Z,8.11
2022-09-20T21:41:39.361Z,8.08
2022-09-20T21:44:09.846Z,8.07
2022-09-20T21:46:40.462Z,8.15
2022-09-20T21:49:09.620Z,8.06
2022-09-20T21:51:38.304Z,8.06
2022-09-20T21:54:06.718Z,8.02
2022-09-20T21:56:36.298Z,7.98
2022-09-20T21:59:07.162Z,7.93
2022-09-20T22:01:37.043Z,7.90
2022-09-20T22:04:07.968Z,7.82
2022-09-20T22:06:37.904Z,7.87
2022-09-20T22:09:07.802Z,7.79
2022-09-20T22:11:39.415Z,7.77
2022-09-20T22:14:08.112Z,7.68
2022-09-20T22:16:38.265Z,7.61
2022-09-20T22:19:11.184Z,7.55
2022-09-20T22:21:40.557Z,7.46
2022-09-20T22:24:10.532Z,7.44
2022-09-20T22:26:39.899Z,7.49
2022-09-20T22:29:08.191Z,7.40
2022-09-20T22:31:37.853Z,7.42
2022-09-20T22:34:08.297Z,7.35
2022-09-20T22:36:38.187Z,7.25
2022-09-20T22:39:07.569Z,7.27
2022-09-20T22:41:36.173Z,7.32
2022-09-20T22:44:04.313Z,7.27
2022-09-20T22:46:33.510Z,7.20
2022-09-20T22:49:01.799Z,7.07
2022-09-20T22:51:33.300Z,7.02
2022-09-20T22:54:01.568Z,6.94
2022-09-20T22:56:31.233Z,6.97
2022-09-20T22:59:01.050Z,6.96
2022-09-20T23:01:30.683Z,6.98
2022-09-20T23:04:00.906Z,6.97
2022-09-20T23:06:31.760Z,6.93
2022-09-20T23:09:02.027Z,6.86
2022-09-20T23:11:30.421Z,6.82
2022-09-20T23:13:59.733Z,6.67
2022-09-20T23:16:29.475Z,6.72
2022-09-20T23:18:59.311Z,6.79
2022-09-20T23:21:27.576Z,6.69
2022-09-20T23:23:58.280Z,6.73
2022-09-20T23:26:27.666Z,6.66
2022-09-20T23:28:57.391Z,6.66
2022-09-20T23:31:26.264Z,6.62
2022-09-20T23:33:56.282Z,6.60
2022-09-20T23:36:25.405Z,6.80
2022-09-20T23:38:53.206Z,6.76
2022-09-20T23:41:24.124Z,6.78
2022-09-20T23:43:52.562Z,6.59
2022-09-20T23:46:21.807Z,6.51
2022-09-20T23:48:50.463Z,6.55
2022-09-20T23:51:20.152Z,6.57
2022-09-20T23:53:48.173Z,6.58
2022-09-20T23:56:16.157Z,6.60
2022-09-20T23:58:45.903Z,6.51
